sensor_id;sensor_type;location;lat;lon;timestamp;temperature;humidity
45343;DHT22;31077;50.872;4.352;2023-03-01T00:01:48;24.30;25.80
45343;DHT22;31077;50.872;4.352;2023-03-01T00:04:14;23.90;25.60
45343;DHT22;31077;50.872;4.352;2023-03-01T00:06:40;24.20;25.80
45343;DHT22;31077;50.872;4.352;2023-03-01T00:09:07;24.50;25.80
45343;DHT22;31077;50.872;4.352;2023-03-01T00:11:33;24.20;25.70
45343;DHT22;31077;50.872;4.352;2023-03-01T00:14:00;24.20;25.70
45343;DHT22;31077;50.872;4.352;2023-03-01T00:16:29;24.40;25.80
45343;DHT22;31077;50.872;4.352;2023-03-01T00:18:56;24.20;25.70
45343;DHT22;31077;50.872;4.352;2023-03-01T00:21:24;24.20;25.70
45343;DHT22;31077;50.872;4.352;2023-03-01T00:23:50;24.70;26.00
45343;DHT22;31077;50.872;4.352;2023-03-01T00:26:17;24.30;25.70
45343;DHT22;31077;50.872;4.352;2023-03-01T00:28:43;22.30;24.90
45343;DHT22;31077;50.872;4.352;2023-03-01T00:31:15;24.30;25.70
45343;DHT22;31077;50.872;4.352;2023-03-01T00:33:41;24.20;25.70
45343;DHT22;31077;50.872;4.352;2023-03-01T00:36:08;24.30;25.60
45343;DHT22;31077;50.872;4.352;2023-03-01T00:38:36;24.30;25.70
45343;DHT22;31077;50.872;4.352;2023-03-01T00:41:07;24.40;25.70
45343;DHT22;31077;50.872;4.352;2023-03-01T00:43:33;24.20;25.60
45343;DHT22;31077;50.872;4.352;2023-03-01T00:46:09;24.20;25.60
45343;DHT22;31077;50.872;4.352;2023-03-01T00:48:36;24.20;25.50
45343;DHT22;31077;50.872;4.352;2023-03-01T00:51:28;24.30;25.50
45343;DHT22;31077;50.872;4.352;2023-03-01T00:53:55;24.30;25.60
45343;DHT22;31077;50.872;4.352;2023-03-01T00:56:22;24.30;25.60
45343;DHT22;31077;50.872;4.352;2023-03-01T00:58:48;24.40;25.70
45343;DHT22;31077;50.872;4.352;2023-03-01T01:01:19;24.20;25.60
45343;DHT22;31077;50.872;4.352;2023-03-01T01:03:52;24.20;25.50
45343;DHT22;31077;50.872;4.352;2023-03-01T01:06:20;24.20;25.60
45343;DHT22;31077;50.872;4.352;2023-03-01T01:08:47;25.10;25.90
45343;DHT22;31077;50.872;4.352;2023-03-01T01:11:13;24.30;25.70
45343;DHT22;31077;50.872;4.352;2023-03-01T01:13:40;24.30;25.80
45343;DHT22;31077;50.872;4.352;2023-03-01T01:16:07;24.30;25.80
45343;DHT22;31077;50.872;4.352;2023-03-01T01:18:33;24.20;26.00
45343;DHT22;31077;50.872;4.352;2023-03-01T01:21:04;24.30;25.90
45343;DHT22;31077;50.872;4.352;2023-03-01T01:23:30;24.40;25.90
45343;DHT22;31077;50.872;4.352;2023-03-01T01:25:56;24.40;25.90
45343;DHT22;31077;50.872;4.352;2023-03-01T01:28:22;22.80;25.30
45343;DHT22;31077;50.872;4.352;2023-03-01T01:30:48;24.30;26.00
45343;DHT22;31077;50.872;4.352;2023-03-01T01:33:13;24.30;26.00
45343;DHT22;31077;50.872;4.352;2023-03-01T01:35:39;25.90;26.80
45343;DHT22;31077;50.872;4.352;2023-03-01T01:38:05;24.40;26.00
45343;DHT22;31077;50.872;4.352;2023-03-01T01:40:31;24.30;26.00
45343;DHT22;31077;50.872;4.352;2023-03-01T01:42:56;24.50;26.10
45343;DHT22;31077;50.872;4.352;2023-03-01T01:45:35;24.30;25.90
45343;DHT22;31077;50.872;4.352;2023-03-01T01:48:04;24.30;25.90
45343;DHT22;31077;50.872;4.352;2023-03-01T01:50:33;24.30;25.80
45343;DHT22;31077;50.872;4.352;2023-03-01T01:53:12;24.40;26.00
45343;DHT22;31077;50.872;4.352;2023-03-01T01:55:44;24.30;25.90
45343;DHT22;31077;50.872;4.352;2023-03-01T01:58:13;24.30;25.80
45343;DHT22;31077;50.872;4.352;2023-03-01T02:00:41;24.40;25.90
45343;DHT22;31077;50.872;4.352;2023-03-01T02:03:15;24.30;25.80
45343;DHT22;31077;50.872;4.352;2023-03-01T02:05:54;24.30;25.80
45343;DHT22;31077;50.872;4.352;2023-03-01T02:08:21;24.20;25.80
45343;DHT22;31077;50.872;4.352;2023-03-01T02:10:49;24.30;25.80
45343;DHT22;31077;50.872;4.352;2023-03-01T02:13:16;24.30;25.70
45343;DHT22;31077;50.872;4.352;2023-03-01T02:15:42;24.20;25.60
45343;DHT22;31077;50.872;4.352;2023-03-01T02:18:11;24.30;25.80
45343;DHT22;31077;50.872;4.352;2023-03-01T02:20:47;23.30;25.30
45343;DHT22;31077;50.872;4.352;2023-03-01T02:23:15;24.20;25.70
45343;DHT22;31077;50.872;4.352;2023-03-01T02:28:32;24.30;25.70
45343;DHT22;31077;50.872;4.352;2023-03-01T02:30:59;22.60;25.00
45343;DHT22;31077;50.872;4.352;2023-03-01T02:33:44;24.40;25.70
45343;DHT22;31077;50.872;4.352;2023-03-01T02:36:17;24.30;25.70
45343;DHT22;31077;50.872;4.352;2023-03-01T02:38:44;24.20;25.60
45343;DHT22;31077;50.872;4.352;2023-03-01T02:41:13;24.20;25.60
45343;DHT22;31077;50.872;4.352;2023-03-01T02:43:40;24.20;25.60
45343;DHT22;31077;50.872;4.352;2023-03-01T02:46:14;24.40;25.60
45343;DHT22;31077;50.872;4.352;2023-03-01T02:48:51;24.20;25.60
45343;DHT22;31077;50.872;4.352;2023-03-01T02:54:25;24.20;25.60
45343;DHT22;31077;50.872;4.352;2023-03-01T02:56:53;24.10;25.60
45343;DHT22;31077;50.872;4.352;2023-03-01T02:59:21;24.20;25.70
45343;DHT22;31077;50.872;4.352;2023-03-01T03:01:48;24.20;25.70
45343;DHT22;31077;50.872;4.352;2023-03-01T03:04:16;24.30;25.70
45343;DHT22;31077;50.872;4.352;2023-03-01T03:06:44;23.80;25.50
45343;DHT22;31077;50.872;4.352;2023-03-01T03:09:11;24.20;25.50
45343;DHT22;31077;50.872;4.352;2023-03-01T03:11:38;24.20;25.60
45343;DHT22;31077;50.872;4.352;2023-03-01T03:14:05;24.20;25.60
45343;DHT22;31077;50.872;4.352;2023-03-01T03:16:31;24.80;25.80
45343;DHT22;31077;50.872;4.352;2023-03-01T03:18:57;24.20;25.60
45343;DHT22;31077;50.872;4.352;2023-03-01T03:21:32;24.20;25.60
45343;DHT22;31077;50.872;4.352;2023-03-01T03:23:58;24.20;25.60
45343;DHT22;31077;50.872;4.352;2023-03-01T03:26:24;24.20;25.70
45343;DHT22;31077;50.872;4.352;2023-03-01T03:28:50;24.20;25.70
45343;DHT22;31077;50.872;4.352;2023-03-01T03:31:16;24.20;25.80
45343;DHT22;31077;50.872;4.352;2023-03-01T03:33:42;24.20;25.60
45343;DHT22;31077;50.872;4.352;2023-03-01T03:36:07;24.10;25.70
45343;DHT22;31077;50.872;4.352;2023-03-01T03:38:38;24.10;25.70
45343;DHT22;31077;50.872;4.352;2023-03-01T03:41:07;24.10;25.60
45343;DHT22;31077;50.872;4.352;2023-03-01T03:43:35;24.10;25.70
45343;DHT22;31077;50.872;4.352;2023-03-01T03:46:02;24.10;25.60
45343;DHT22;31077;50.872;4.352;2023-03-01T03:48:34;24.10;25.70
45343;DHT22;31077;50.872;4.352;2023-03-01T03:51:00;24.00;25.60
45343;DHT22;31077;50.872;4.352;2023-03-01T03:53:27;24.20;25.70
45343;DHT22;31077;50.872;4.352;2023-03-01T03:55:54;24.10;25.60
45343;DHT22;31077;50.872;4.352;2023-03-01T03:58:22;23.00;25.20
45343;DHT22;31077;50.872;4.352;2023-03-01T04:00:50;24.00;25.60
45343;DHT22;31077;50.872;4.352;2023-03-01T04:03:18;24.20;25.70
45343;DHT22;31077;50.872;4.352;2023-03-01T04:05:44;24.20;25.70
45343;DHT22;31077;50.872;4.352;2023-03-01T04:08:11;24.10;25.70
45343;DHT22;31077;50.872;4.352;2023-03-01T04:10:44;24.00;25.70
45343;DHT22;31077;50.872;4.352;2023-03-01T04:13:13;24.10;25.70
45343;DHT22;31077;50.872;4.352;2023-03-01T04:15:40;24.00;25.70
45343;DHT22;31077;50.872;4.352;2023-03-01T04:18:06;24.10;25.70
45343;DHT22;31077;50.872;4.352;2023-03-01T04:20:34;24.00;25.70
45343;DHT22;31077;50.872;4.352;2023-03-01T04:25:45;24.10;25.80
45343;DHT22;31077;50.872;4.352;2023-03-01T04:28:11;23.90;25.70
45343;DHT22;31077;50.872;4.352;2023-03-01T04:30:38;23.90;25.70
45343;DHT22;31077;50.872;4.352;2023-03-01T04:33:08;24.00;25.70
45343;DHT22;31077;50.872;4.352;2023-03-01T04:35:35;24.00;25.70
45343;DHT22;31077;50.872;4.352;2023-03-01T04:38:01;24.00;25.70
45343;DHT22;31077;50.872;4.352;2023-03-01T04:40:27;23.90;25.60
45343;DHT22;31077;50.872;4.352;2023-03-01T04:42:53;23.90;25.70
45343;DHT22;31077;50.872;4.352;2023-03-01T04:45:19;24.40;26.00
45343;DHT22;31077;50.872;4.352;2023-03-01T04:47:46;23.90;25.70
45343;DHT22;31077;50.872;4.352;2023-03-01T04:50:14;23.90;25.70
45343;DHT22;31077;50.872;4.352;2023-03-01T04:52:40;24.00;25.70
45343;DHT22;31077;50.872;4.352;2023-03-01T04:55:07;23.90;25.70
45343;DHT22;31077;50.872;4.352;2023-03-01T04:57:32;23.90;25.70
45343;DHT22;31077;50.872;4.352;2023-03-01T04:59:58;23.90;25.90
45343;DHT22;31077;50.872;4.352;2023-03-01T05:02:24;24.00;26.00
45343;DHT22;31077;50.872;4.352;2023-03-01T05:04:50;24.00;26.00
45343;DHT22;31077;50.872;4.352;2023-03-01T05:07:16;23.90;25.80
45343;DHT22;31077;50.872;4.352;2023-03-01T05:09:48;24.10;26.00
45343;DHT22;31077;50.872;4.352;2023-03-01T05:12:14;24.00;25.90
45343;DHT22;31077;50.872;4.352;2023-03-01T05:14:40;23.90;25.80
45343;DHT22;31077;50.872;4.352;2023-03-01T05:17:07;24.00;25.90
45343;DHT22;31077;50.872;4.352;2023-03-01T05:19:34;24.00;25.80
45343;DHT22;31077;50.872;4.352;2023-03-01T05:22:00;24.00;25.80
45343;DHT22;31077;50.872;4.352;2023-03-01T05:27:36;23.90;25.80
45343;DHT22;31077;50.872;4.352;2023-03-01T05:30:03;23.90;25.90
45343;DHT22;31077;50.872;4.352;2023-03-01T05:32:40;23.90;25.80
45343;DHT22;31077;50.872;4.352;2023-03-01T05:35:13;23.80;26.00
45343;DHT22;31077;50.872;4.352;2023-03-01T05:37:44;22.40;25.40
45343;DHT22;31077;50.872;4.352;2023-03-01T05:40:12;23.80;26.00
45343;DHT22;31077;50.872;4.352;2023-03-01T05:42:50;23.80;26.00
45343;DHT22;31077;50.872;4.352;2023-03-01T05:45:19;23.90;26.10
45343;DHT22;31077;50.872;4.352;2023-03-01T05:47:46;23.90;26.10
45343;DHT22;31077;50.872;4.352;2023-03-01T05:50:15;23.60;26.20
45343;DHT22;31077;50.872;4.352;2023-03-01T05:52:52;23.90;26.20
45343;DHT22;31077;50.872;4.352;2023-03-01T05:55:20;22.10;25.50
45343;DHT22;31077;50.872;4.352;2023-03-01T05:57:47;22.80;25.70
45343;DHT22;31077;50.872;4.352;2023-03-01T06:00:15;23.80;26.20
45343;DHT22;31077;50.872;4.352;2023-03-01T06:02:41;23.90;26.20
45343;DHT22;31077;50.872;4.352;2023-03-01T06:05:09;23.90;26.10
45343;DHT22;31077;50.872;4.352;2023-03-01T06:07:35;24.00;26.20
45343;DHT22;31077;50.872;4.352;2023-03-01T06:10:03;23.80;26.10
45343;DHT22;31077;50.872;4.352;2023-03-01T06:12:32;23.90;26.20
45343;DHT22;31077;50.872;4.352;2023-03-01T06:14:59;23.90;26.20
45343;DHT22;31077;50.872;4.352;2023-03-01T06:17:25;23.80;26.10
45343;DHT22;31077;50.872;4.352;2023-03-01T06:19:50;23.80;26.10
45343;DHT22;31077;50.872;4.352;2023-03-01T06:22:16;23.90;26.10
45343;DHT22;31077;50.872;4.352;2023-03-01T06:24:42;23.90;26.30
45343;DHT22;31077;50.872;4.352;2023-03-01T06:27:08;24.00;26.20
45343;DHT22;31077;50.872;4.352;2023-03-01T06:29:34;24.00;26.30
45343;DHT22;31077;50.872;4.352;2023-03-01T06:31:59;23.90;26.20
45343;DHT22;31077;50.872;4.352;2023-03-01T06:34:25;23.90;26.20
45343;DHT22;31077;50.872;4.352;2023-03-01T06:36:51;23.80;26.20
45343;DHT22;31077;50.872;4.352;2023-03-01T06:39:17;23.80;26.10
45343;DHT22;31077;50.872;4.352;2023-03-01T06:41:44;23.90;26.30
45343;DHT22;31077;50.872;4.352;2023-03-01T06:44:09;23.80;26.10
45343;DHT22;31077;50.872;4.352;2023-03-01T06:46:35;23.90;26.30
45343;DHT22;31077;50.872;4.352;2023-03-01T06:49:04;23.90;26.30
45343;DHT22;31077;50.872;4.352;2023-03-01T06:51:33;23.90;26.20
45343;DHT22;31077;50.872;4.352;2023-03-01T06:53:59;23.80;26.30
45343;DHT22;31077;50.872;4.352;2023-03-01T06:56:24;24.00;26.20
45343;DHT22;31077;50.872;4.352;2023-03-01T06:58:50;23.80;26.10
45343;DHT22;31077;50.872;4.352;2023-03-01T07:01:16;23.90;26.10
45343;DHT22;31077;50.872;4.352;2023-03-01T07:03:42;23.80;26.10
45343;DHT22;31077;50.872;4.352;2023-03-01T07:06:10;22.70;25.70
45343;DHT22;31077;50.872;4.352;2023-03-01T07:08:36;23.80;26.20
45343;DHT22;31077;50.872;4.352;2023-03-01T07:11:01;23.80;26.10
45343;DHT22;31077;50.872;4.352;2023-03-01T07:13:28;23.80;26.20
45343;DHT22;31077;50.872;4.352;2023-03-01T07:15:55;23.90;26.20
45343;DHT22;31077;50.872;4.352;2023-03-01T07:18:21;23.80;26.10
45343;DHT22;31077;50.872;4.352;2023-03-01T07:20:47;23.90;26.20
45343;DHT22;31077;50.872;4.352;2023-03-01T07:23:13;23.10;25.90
45343;DHT22;31077;50.872;4.352;2023-03-01T07:25:38;23.90;26.10
45343;DHT22;31077;50.872;4.352;2023-03-01T07:28:04;23.90;26.10
45343;DHT22;31077;50.872;4.352;2023-03-01T07:30:30;23.80;26.20
45343;DHT22;31077;50.872;4.352;2023-03-01T07:32:57;23.80;26.30
45343;DHT22;31077;50.872;4.352;2023-03-01T07:35:25;23.90;26.20
45343;DHT22;31077;50.872;4.352;2023-03-01T07:37:51;23.80;26.20
45343;DHT22;31077;50.872;4.352;2023-03-01T07:40:17;23.70;26.10
45343;DHT22;31077;50.872;4.352;2023-03-01T07:42:43;23.80;26.20
45343;DHT22;31077;50.872;4.352;2023-03-01T07:45:09;23.70;26.10
45343;DHT22;31077;50.872;4.352;2023-03-01T07:47:36;23.70;26.00
45343;DHT22;31077;50.872;4.352;2023-03-01T07:50:03;23.70;26.00
45343;DHT22;31077;50.872;4.352;2023-03-01T07:52:29;23.70;26.40
45343;DHT22;31077;50.872;4.352;2023-03-01T07:54:56;23.70;25.90
45343;DHT22;31077;50.872;4.352;2023-03-01T07:57:22;23.80;26.00
45343;DHT22;31077;50.872;4.352;2023-03-01T07:59:48;23.80;25.90
45343;DHT22;31077;50.872;4.352;2023-03-01T08:02:13;23.80;25.90
45343;DHT22;31077;50.872;4.352;2023-03-01T08:04:41;23.70;25.80
45343;DHT22;31077;50.872;4.352;2023-03-01T08:07:06;23.80;25.80
45343;DHT22;31077;50.872;4.352;2023-03-01T08:09:34;23.80;25.80
45343;DHT22;31077;50.872;4.352;2023-03-01T08:12:00;23.80;25.70
45343;DHT22;31077;50.872;4.352;2023-03-01T08:14:26;23.80;25.80
45343;DHT22;31077;50.872;4.352;2023-03-01T08:16:52;23.90;25.80
45343;DHT22;31077;50.872;4.352;2023-03-01T08:19:18;23.70;25.70
45343;DHT22;31077;50.872;4.352;2023-03-01T08:21:44;23.80;25.80
45343;DHT22;31077;50.872;4.352;2023-03-01T08:24:09;23.90;25.70
45343;DHT22;31077;50.872;4.352;2023-03-01T08:26:35;23.80;25.70
45343;DHT22;31077;50.872;4.352;2023-03-01T08:29:02;22.40;25.10
45343;DHT22;31077;50.872;4.352;2023-03-01T08:31:33;23.80;25.70
45343;DHT22;31077;50.872;4.352;2023-03-01T08:34:03;23.90;25.70
45343;DHT22;31077;50.872;4.352;2023-03-01T08:36:40;23.70;25.60
45343;DHT22;31077;50.872;4.352;2023-03-01T08:39:10;23.90;25.70
45343;DHT22;31077;50.872;4.352;2023-03-01T08:41:38;23.80;25.60
45343;DHT22;31077;50.872;4.352;2023-03-01T08:44:05;23.90;25.60
45343;DHT22;31077;50.872;4.352;2023-03-01T08:46:36;23.90;25.60
45343;DHT22;31077;50.872;4.352;2023-03-01T08:49:11;23.80;25.50
45343;DHT22;31077;50.872;4.352;2023-03-01T08:51:38;23.80;25.50
45343;DHT22;31077;50.872;4.352;2023-03-01T08:54:05;22.40;24.90
45343;DHT22;31077;50.872;4.352;2023-03-01T08:56:31;23.90;25.50
45343;DHT22;31077;50.872;4.352;2023-03-01T08:58:57;23.80;25.50
45343;DHT22;31077;50.872;4.352;2023-03-01T09:01:23;23.80;25.50
45343;DHT22;31077;50.872;4.352;2023-03-01T09:03:48;23.90;25.50
45343;DHT22;31077;50.872;4.352;2023-03-01T09:06:14;23.80;25.40
45343;DHT22;31077;50.872;4.352;2023-03-01T09:08:43;23.70;25.40
45343;DHT22;31077;50.872;4.352;2023-03-01T09:11:15;23.80;25.40
45343;DHT22;31077;50.872;4.352;2023-03-01T09:13:45;23.90;25.50
45343;DHT22;31077;50.872;4.352;2023-03-01T09:16:13;23.80;25.40
45343;DHT22;31077;50.872;4.352;2023-03-01T09:18:41;23.90;25.50
45343;DHT22;31077;50.872;4.352;2023-03-01T09:21:10;23.90;25.40
45343;DHT22;31077;50.872;4.352;2023-03-01T09:23:38;23.80;25.40
45343;DHT22;31077;50.872;4.352;2023-03-01T09:26:19;23.90;25.40
45343;DHT22;31077;50.872;4.352;2023-03-01T09:28:47;23.90;25.40
45343;DHT22;31077;50.872;4.352;2023-03-01T09:31:14;23.90;25.40
45343;DHT22;31077;50.872;4.352;2023-03-01T09:33:41;24.00;25.40
45343;DHT22;31077;50.872;4.352;2023-03-01T09:36:12;24.00;25.40
45343;DHT22;31077;50.872;4.352;2023-03-01T09:38:40;24.00;25.40
45343;DHT22;31077;50.872;4.352;2023-03-01T09:44:08;23.90;25.30
45343;DHT22;31077;50.872;4.352;2023-03-01T09:46:43;22.40;24.80
45343;DHT22;31077;50.872;4.352;2023-03-01T09:49:17;23.80;25.30
45343;DHT22;31077;50.872;4.352;2023-03-01T09:52:11;23.80;25.30
45343;DHT22;31077;50.872;4.352;2023-03-01T09:54:34;23.80;25.30
45343;DHT22;31077;50.872;4.352;2023-03-01T09:58:04;23.80;25.50
45343;DHT22;31077;50.872;4.352;2023-03-01T10:06:09;23.90;25.30
45343;DHT22;31077;50.872;4.352;2023-03-01T10:11:30;24.80;25.80
45343;DHT22;31077;50.872;4.352;2023-03-01T10:14:27;22.30;24.80
45343;DHT22;31077;50.872;4.352;2023-03-01T10:16:58;23.80;25.30
45343;DHT22;31077;50.872;4.352;2023-03-01T10:19:32;23.80;25.30
45343;DHT22;31077;50.872;4.352;2023-03-01T10:22:21;23.80;25.30
45343;DHT22;31077;50.872;4.352;2023-03-01T10:24:47;24.00;25.30
45343;DHT22;31077;50.872;4.352;2023-03-01T10:27:23;23.90;25.40
45343;DHT22;31077;50.872;4.352;2023-03-01T10:32:31;23.90;25.50
45343;DHT22;31077;50.872;4.352;2023-03-01T10:34:57;22.40;25.00
45343;DHT22;31077;50.872;4.352;2023-03-01T10:37:23;24.00;25.70
45343;DHT22;31077;50.872;4.352;2023-03-01T10:42:28;24.00;25.70
45343;DHT22;31077;50.872;4.352;2023-03-01T10:44:54;21.90;24.80
45343;DHT22;31077;50.872;4.352;2023-03-01T10:47:22;23.90;25.70
45343;DHT22;31077;50.872;4.352;2023-03-01T10:50:02;24.00;25.60
45343;DHT22;31077;50.872;4.352;2023-03-01T10:52:30;24.00;25.70
45343;DHT22;31077;50.872;4.352;2023-03-01T10:54:59;24.00;25.70
45343;DHT22;31077;50.872;4.352;2023-03-01T10:57:35;24.10;25.70
45343;DHT22;31077;50.872;4.352;2023-03-01T11:00:20;24.10;25.60
45343;DHT22;31077;50.872;4.352;2023-03-01T11:03:01;24.10;25.70
45343;DHT22;31077;50.872;4.352;2023-03-01T11:05:27;24.00;25.60
45343;DHT22;31077;50.872;4.352;2023-03-01T11:08:00;24.00;25.60
45343;DHT22;31077;50.872;4.352;2023-03-01T11:10:33;24.00;25.60
45343;DHT22;31077;50.872;4.352;2023-03-01T11:13:18;24.00;25.50
45343;DHT22;31077;50.872;4.352;2023-03-01T11:16:07;24.00;25.50
45343;DHT22;31077;50.872;4.352;2023-03-01T11:18:35;24.10;25.50
45343;DHT22;31077;50.872;4.352;2023-03-01T11:21:03;24.20;25.60
45343;DHT22;31077;50.872;4.352;2023-03-01T11:23:30;24.30;25.60
45343;DHT22;31077;50.872;4.352;2023-03-01T11:26:08;24.20;25.40
45343;DHT22;31077;50.872;4.352;2023-03-01T11:28:37;23.40;25.10
45343;DHT22;31077;50.872;4.352;2023-03-01T11:31:09;24.30;25.40
45343;DHT22;31077;50.872;4.352;2023-03-01T11:33:59;24.30;25.40
45343;DHT22;31077;50.872;4.352;2023-03-01T11:36:41;24.40;25.40
45343;DHT22;31077;50.872;4.352;2023-03-01T11:41:57;24.40;25.30
45343;DHT22;31077;50.872;4.352;2023-03-01T11:44:28;24.40;25.30
45343;DHT22;31077;50.872;4.352;2023-03-01T11:52:45;24.40;25.30
45343;DHT22;31077;50.872;4.352;2023-03-01T12:18:03;24.50;25.40
45343;DHT22;31077;50.872;4.352;2023-03-01T12:26:33;24.50;25.50
45343;DHT22;31077;50.872;4.352;2023-03-01T12:32:30;24.50;25.30
45343;DHT22;31077;50.872;4.352;2023-03-01T12:43:27;23.50;24.90
45343;DHT22;31077;50.872;4.352;2023-03-01T12:50:58;24.50;25.30
45343;DHT22;31077;50.872;4.352;2023-03-01T12:53:50;24.60;25.40
45343;DHT22;31077;50.872;4.352;2023-03-01T12:56:28;24.60;25.30
45343;DHT22;31077;50.872;4.352;2023-03-01T13:04:51;24.70;25.30
45343;DHT22;31077;50.872;4.352;2023-03-01T13:13:39;24.70;25.10
45343;DHT22;31077;50.872;4.352;2023-03-01T13:19:08;24.80;25.10
45343;DHT22;31077;50.872;4.352;2023-03-01T13:21:35;24.80;25.10
45343;DHT22;31077;50.872;4.352;2023-03-01T13:24:01;24.80;25.00
45343;DHT22;31077;50.872;4.352;2023-03-01T13:26:26;24.90;25.00
45343;DHT22;31077;50.872;4.352;2023-03-01T13:28:57;24.90;25.00
45343;DHT22;31077;50.872;4.352;2023-03-01T13:33:54;24.90;24.90
45343;DHT22;31077;50.872;4.352;2023-03-01T13:39:01;25.00;24.90
45343;DHT22;31077;50.872;4.352;2023-03-01T13:44:32;25.00;24.80
45343;DHT22;31077;50.872;4.352;2023-03-01T13:47:17;25.00;24.80
45343;DHT22;31077;50.872;4.352;2023-03-01T13:50:02;25.10;24.80
45343;DHT22;31077;50.872;4.352;2023-03-01T13:52:52;25.00;24.70
45343;DHT22;31077;50.872;4.352;2023-03-01T13:55:46;25.30;24.90
45343;DHT22;31077;50.872;4.352;2023-03-01T13:58:27;25.00;24.70
45343;DHT22;31077;50.872;4.352;2023-03-01T14:01:02;25.00;24.70
45343;DHT22;31077;50.872;4.352;2023-03-01T14:03:30;25.10;24.70
45343;DHT22;31077;50.872;4.352;2023-03-01T14:06:09;25.10;24.70
45343;DHT22;31077;50.872;4.352;2023-03-01T14:08:39;25.10;24.60
45343;DHT22;31077;50.872;4.352;2023-03-01T14:11:33;25.10;24.70
45343;DHT22;31077;50.872;4.352;2023-03-01T14:19:36;25.10;24.60
45343;DHT22;31077;50.872;4.352;2023-03-01T14:22:26;25.10;24.70
45343;DHT22;31077;50.872;4.352;2023-03-01T14:25:00;25.20;24.70
45343;DHT22;31077;50.872;4.352;2023-03-01T14:27:38;25.10;24.60
45343;DHT22;31077;50.872;4.352;2023-03-01T14:30:34;25.20;24.60
45343;DHT22;31077;50.872;4.352;2023-03-01T14:33:03;25.20;24.60
45343;DHT22;31077;50.872;4.352;2023-03-01T14:35:31;25.30;24.60
45343;DHT22;31077;50.872;4.352;2023-03-01T14:37:58;25.30;24.60
45343;DHT22;31077;50.872;4.352;2023-03-01T14:40:35;25.30;24.70
45343;DHT22;31077;50.872;4.352;2023-03-01T14:43:09;25.30;24.60
45343;DHT22;31077;50.872;4.352;2023-03-01T14:45:36;25.30;24.60
45343;DHT22;31077;50.872;4.352;2023-03-01T14:48:04;25.30;24.50
45343;DHT22;31077;50.872;4.352;2023-03-01T14:50:36;25.30;24.50
45343;DHT22;31077;50.872;4.352;2023-03-01T14:53:06;25.30;24.60
45343;DHT22;31077;50.872;4.352;2023-03-01T14:55:42;25.40;24.60
45343;DHT22;31077;50.872;4.352;2023-03-01T14:58:14;25.40;24.60
45343;DHT22;31077;50.872;4.352;2023-03-01T15:01:00;25.40;24.60
45343;DHT22;31077;50.872;4.352;2023-03-01T15:03:38;25.40;24.60
45343;DHT22;31077;50.872;4.352;2023-03-01T15:06:07;25.50;24.70
45343;DHT22;31077;50.872;4.352;2023-03-01T15:08:34;25.40;24.60
45343;DHT22;31077;50.872;4.352;2023-03-01T15:11:33;25.50;24.70
45343;DHT22;31077;50.872;4.352;2023-03-01T15:13:59;25.50;24.70
45343;DHT22;31077;50.872;4.352;2023-03-01T15:16:33;25.50;24.60
45343;DHT22;31077;50.872;4.352;2023-03-01T15:19:03;25.50;24.60
45343;DHT22;31077;50.872;4.352;2023-03-01T15:21:32;25.50;24.70
45343;DHT22;31077;50.872;4.352;2023-03-01T15:24:34;25.50;24.70
45343;DHT22;31077;50.872;4.352;2023-03-01T15:27:01;25.50;24.60
45343;DHT22;31077;50.872;4.352;2023-03-01T15:29:32;25.50;24.70
45343;DHT22;31077;50.872;4.352;2023-03-01T15:32:05;25.50;24.70
45343;DHT22;31077;50.872;4.352;2023-03-01T15:34:37;25.50;24.60
45343;DHT22;31077;50.872;4.352;2023-03-01T15:37:06;25.50;24.70
45343;DHT22;31077;50.872;4.352;2023-03-01T15:39:39;25.50;24.70
45343;DHT22;31077;50.872;4.352;2023-03-01T15:47:57;27.20;25.50
45343;DHT22;31077;50.872;4.352;2023-03-01T15:50:34;25.70;24.80
45343;DHT22;31077;50.872;4.352;2023-03-01T15:53:03;25.60;24.70
45343;DHT22;31077;50.872;4.352;2023-03-01T15:55:32;25.50;24.60
45343;DHT22;31077;50.872;4.352;2023-03-01T15:58:17;25.60;24.80
45343;DHT22;31077;50.872;4.352;2023-03-01T16:00:47;25.50;24.60
45343;DHT22;31077;50.872;4.352;2023-03-01T16:03:14;25.60;24.60
45343;DHT22;31077;50.872;4.352;2023-03-01T16:05:47;25.70;24.70
45343;DHT22;31077;50.872;4.352;2023-03-01T16:08:14;24.30;24.10
45343;DHT22;31077;50.872;4.352;2023-03-01T16:10:41;27.30;25.50
45343;DHT22;31077;50.872;4.352;2023-03-01T16:13:10;25.70;24.70
45343;DHT22;31077;50.872;4.352;2023-03-01T16:15:36;25.70;24.60
45343;DHT22;31077;50.872;4.352;2023-03-01T16:18:02;25.60;24.60
45343;DHT22;31077;50.872;4.352;2023-03-01T16:20:29;25.70;24.50
45343;DHT22;31077;50.872;4.352;2023-03-01T16:22:57;25.60;24.50
45343;DHT22;31077;50.872;4.352;2023-03-01T16:25:24;25.70;24.50
45343;DHT22;31077;50.872;4.352;2023-03-01T16:27:50;25.70;24.50
45343;DHT22;31077;50.872;4.352;2023-03-01T16:30:19;25.70;24.50
45343;DHT22;31077;50.872;4.352;2023-03-01T16:32:46;25.70;24.40
45343;DHT22;31077;50.872;4.352;2023-03-01T16:35:14;25.70;24.60
45343;DHT22;31077;50.872;4.352;2023-03-01T16:37:40;25.70;24.50
45343;DHT22;31077;50.872;4.352;2023-03-01T16:40:33;25.80;24.60
45343;DHT22;31077;50.872;4.352;2023-03-01T16:42:58;25.80;24.60
45343;DHT22;31077;50.872;4.352;2023-03-01T16:45:33;26.00;24.60
45343;DHT22;31077;50.872;4.352;2023-03-01T16:47:59;25.80;24.60
45343;DHT22;31077;50.872;4.352;2023-03-01T16:50:25;25.90;24.60
45343;DHT22;31077;50.872;4.352;2023-03-01T16:52:52;25.80;24.60
45343;DHT22;31077;50.872;4.352;2023-03-01T16:55:18;25.80;25.10
45343;DHT22;31077;50.872;4.352;2023-03-01T16:57:44;25.80;24.70
45343;DHT22;31077;50.872;4.352;2023-03-01T17:00:12;25.90;24.70
45343;DHT22;31077;50.872;4.352;2023-03-01T17:02:38;25.70;24.60
45343;DHT22;31077;50.872;4.352;2023-03-01T17:05:05;25.70;24.70
45343;DHT22;31077;50.872;4.352;2023-03-01T17:07:32;25.70;24.70
45343;DHT22;31077;50.872;4.352;2023-03-01T17:10:02;25.70;24.70
45343;DHT22;31077;50.872;4.352;2023-03-01T17:12:28;25.60;24.70
45343;DHT22;31077;50.872;4.352;2023-03-01T17:14:54;25.60;24.80
45343;DHT22;31077;50.872;4.352;2023-03-01T17:17:20;25.40;24.70
45343;DHT22;31077;50.872;4.352;2023-03-01T17:19:46;25.40;24.80
45343;DHT22;31077;50.872;4.352;2023-03-01T17:22:12;25.40;24.90
45343;DHT22;31077;50.872;4.352;2023-03-01T17:24:39;25.30;24.80
45343;DHT22;31077;50.872;4.352;2023-03-01T17:27:06;25.20;24.90
45343;DHT22;31077;50.872;4.352;2023-03-01T17:29:32;25.10;24.90
45343;DHT22;31077;50.872;4.352;2023-03-01T17:31:59;25.10;25.00
45343;DHT22;31077;50.872;4.352;2023-03-01T17:34:25;25.10;24.90
45343;DHT22;31077;50.872;4.352;2023-03-01T17:36:51;25.00;25.00
45343;DHT22;31077;50.872;4.352;2023-03-01T17:39:18;24.90;25.10
45343;DHT22;31077;50.872;4.352;2023-03-01T17:41:54;25.00;25.10
45343;DHT22;31077;50.872;4.352;2023-03-01T17:44:20;26.40;25.90